Time;durP1;ratioP1;P1;durP2;ratioP2;P2;SDS_P1;SDS_P2;PMS_P1;PMS_P2;Temp;Humidity;BMP_temperature;BMP_pressure;BME280_temperature;BME280_humidity;BME280_pressure;Samples;Min_cycle;Max_cycle;Signal;HPM_P1;HPM_P2
2021/01/03 00:00:28;;;;;;;23.87;16.67;;;;;;;3.23;72.25;100285.16;1766602;79;21162;-38
2021/01/03 00:02:56;;;;;;;22.00;15.93;;;;;;;3.26;72.30;100282.70;1766658;79;21163;-37
2021/01/03 00:05:30;;;;;;;23.95;16.95;;;;;;;3.27;72.26;100290.20;1777594;79;21472;-38
2021/01/03 00:07:58;;;;;;;25.23;17.87;;;;;;;3.27;72.20;100289.66;1774389;79;21194;-38
2021/01/03 00:10:28;;;;;;;26.12;18.40;;;;;;;3.25;72.31;100284.31;1765639;79;21131;-38
2021/01/03 00:12:57;;;;;;;23.83;17.23;;;;;;;3.22;72.28;100292.94;1767197;79;21013;-38
2021/01/03 00:15:25;;;;;;;22.73;16.85;;;;;;;3.20;72.27;100285.72;1781785;79;21162;-38
2021/01/03 00:17:53;;;;;;;21.60;15.43;;;;;;;3.22;72.09;100282.22;1787627;79;21192;-36
2021/01/03 00:20:25;;;;;;;24.57;16.48;;;;;;;3.26;71.83;100289.94;1776039;80;21153;-38
2021/01/03 00:22:53;;;;;;;25.00;17.35;;;;;;;3.27;71.74;100289.66;1782861;79;21174;-38
2021/01/03 00:25:23;;;;;;;25.70;17.17;;;;;;;3.26;71.63;100284.58;1796877;79;21158;-38
2021/01/03 00:27:52;;;;;;;;;;;;;;;3.25;71.50;100290.48;1793153;79;21121;-38
2021/01/03 00:30:23;;;;;;;26.55;17.73;;;;;;;3.24;71.31;100284.09;1809604;79;21247;-38
2021/01/03 00:32:52;;;;;;;29.32;18.23;;;;;;;3.08;71.35;100284.02;1810185;79;21139;-36
2021/01/03 00:35:25;;;;;;;25.97;18.07;;;;;;;3.03;71.34;100284.87;1791070;79;21122;-38
2021/01/03 00:37:59;;;;;;;30.02;20.30;;;;;;;3.05;71.20;100286.70;1784906;79;21128;-38
2021/01/03 00:40:28;;;;;;;24.57;16.97;;;;;;;3.12;71.02;100289.05;1784202;79;21146;-37
2021/01/03 00:42:57;;;;;;;25.48;17.77;;;;;;;3.13;71.00;100283.41;1796190;79;21517;-38
2021/01/03 00:45:25;;;;;;;26.33;17.62;;;;;;;3.13;70.98;100287.97;1785076;79;21032;-39
2021/01/03 00:47:54;;;;;;;32.08;22.77;;;;;;;3.13;71.03;100278.05;1782084;79;21565;-37
2021/01/03 00:50:22;;;;;;;36.15;25.85;;;;;;;3.14;71.16;100285.55;1797779;79;21814;-38
2021/01/03 00:52:50;;;;;;;33.10;22.15;;;;;;;3.13;71.23;100287.97;1783717;79;21373;-38
2021/01/03 00:55:19;;;;;;;29.42;21.57;;;;;;;3.13;71.17;100286.09;1783293;79;21247;-38
2021/01/03 00:57:47;;;;;;;26.23;18.50;;;;;;;3.20;71.21;100288.40;1794892;79;21067;-38
2021/01/03 01:00:25;;;;;;;28.45;20.95;;;;;;;3.25;71.29;100286.99;1787691;79;21376;-38
2021/01/03 01:02:53;;;;;;;28.62;19.70;;;;;;;3.29;71.28;100287.47;1790738;79;21165;-38
2021/01/03 01:05:23;;;;;;;27.73;18.67;;;;;;;3.32;71.31;100287.45;1784990;79;21098;-37
2021/01/03 01:07:53;;;;;;;24.10;17.82;;;;;;;3.34;71.37;100294.67;1813267;79;22134;-38
2021/01/03 01:10:22;;;;;;;;;;;;;;;3.35;71.35;100284.98;1799447;79;21174;-37
2021/01/03 01:12:52;;;;;;;27.85;18.37;;;;;;;3.34;71.45;100275.91;1784583;79;20557;-38
2021/01/03 01:15:22;;;;;;;30.20;22.42;;;;;;;3.29;71.61;100281.34;1787199;79;21019;-37
2021/01/03 01:17:54;;;;;;;27.00;18.92;;;;;;;3.38;71.61;100278.27;1784867;79;21167;-37
2021/01/03 01:20:24;;;;;;;39.27;26.33;;;;;;;3.46;71.57;100273.59;1768665;79;22257;-37
2021/01/03 01:22:53;;;;;;;36.77;26.37;;;;;;;3.52;71.52;100259.56;1769555;79;21724;-38
2021/01/03 01:25:25;;;;;;;26.05;18.92;;;;;;;3.49;71.38;100264.41;1767628;79;21131;-38
2021/01/03 01:27:54;;;;;;;25.17;17.60;;;;;;;3.45;71.63;100270.64;1769770;79;21138;-38
2021/01/03 01:30:23;;;;;;;26.20;17.20;;;;;;;3.42;71.82;100275.25;1766699;79;21104;-38
2021/01/03 01:32:52;;;;;;;17.48;12.63;;;;;;;3.48;71.86;100276.78;1767889;79;22289;-38
2021/01/03 01:35:25;;;;;;;24.50;16.87;;;;;;;3.55;71.88;100279.88;1770579;79;21115;-38
2021/01/03 01:37:54;;;;;;;23.85;16.62;;;;;;;3.56;72.02;100289.52;1770913;79;21557;-37
2021/01/03 01:40:27;;;;;;;25.10;17.10;;;;;;;3.53;72.28;100296.02;1765429;79;21115;-38
2021/01/03 01:42:55;;;;;;;25.43;17.05;;;;;;;3.47;72.48;100297.97;1766762;79;21163;-38
2021/01/03 01:45:30;;;;;;;23.25;12.43;;;;;;;3.39;72.78;100293.23;1766967;79;21781;-37
2021/01/03 01:48:07;;;;;;;22.95;16.25;;;;;;;3.32;73.14;100290.94;1765564;79;21117;-37
2021/01/03 01:50:40;;;;;;;23.32;16.17;;;;;;;3.29;73.39;100290.72;1765273;79;21171;-38
2021/01/03 01:53:15;;;;;;;24.65;16.80;;;;;;;3.35;73.62;100298.92;1768476;79;21139;-38
2021/01/03 01:55:47;;;;;;;23.35;15.05;;;;;;;3.31;73.93;100296.56;1775223;79;21119;-38
2021/01/03 01:58:27;;;;;;;32.55;17.90;;;;;;;3.21;74.43;100296.70;1777367;79;21358;-38
2021/01/03 02:01:02;;;;;;;27.67;17.37;;;;;;;3.13;74.64;100300.83;1775752;79;21158;-38
2021/01/03 02:03:41;;;;;;;27.17;16.42;;;;;;;3.04;74.82;100290.50;1755710;79;21150;-39
2021/01/03 02:06:38;;;;;;;26.68;16.95;;;;;;;3.09;74.93;100292.31;1840792;76;23409;-38
2021/01/03 02:09:17;;;;;;;29.85;16.95;;;;;;;3.05;74.96;100287.51;1789184;79;21578;-38
2021/01/03 02:11:45;;;;;;;29.35;17.37;;;;;;;2.95;75.25;100298.34;1766474;79;21134;-38
2021/01/03 02:14:14;;;;;;;27.52;17.52;;;;;;;2.89;75.56;100302.19;1802315;79;20968;-39
2021/01/03 02:16:45;;;;;;;27.80;18.05;;;;;;;2.89;75.63;100301.39;1814961;79;20988;-39
2021/01/03 02:19:18;;;;;;;24.00;17.45;;;;;;;2.95;75.53;100295.66;1816833;79;21039;-38
2021/01/03 02:22:21;;;;;;;24.67;16.48;;;;;;;3.04;75.44;100292.63;1807619;79;21083;-39
2021/01/03 02:25:02;;;;;;;27.25;18.05;;;;;;;3.11;75.33;100287.45;1812911;79;21251;-38
2021/01/03 02:27:54;;;;;;;34.23;19.27;;;;;;;3.10;75.38;100296.02;1803564;79;21715;-38
2021/01/03 02:30:22;;;;;;;32.30;18.02;;;;;;;3.12;75.38;100295.75;1799880;79;21640;-38
2021/01/03 02:32:55;;;;;;;28.27;19.12;;;;;;;3.13;75.34;100295.47;1754504;80;21593;-37
2021/01/03 02:35:23;;;;;;;24.35;16.65;;;;;;;3.21;75.13;100302.06;1765108;80;21181;-38
2021/01/03 02:37:52;;;;;;;26.75;17.95;;;;;;;3.28;74.87;100306.53;1758841;80;21278;-38
2021/01/03 02:40:23;;;;;;;42.10;18.87;;;;;;;3.27;74.75;100303.59;1781045;79;21184;-38
2021/01/03 02:42:53;;;;;;;30.75;17.05;;;;;;;3.25;74.85;100309.23;1790689;79;21113;-38
2021/01/03 02:45:28;;;;;;;34.48;18.12;;;;;;;3.21;74.84;100312.77;1808763;79;21115;-38
2021/01/03 02:48:07;;;;;;;26.45;17.92;;;;;;;3.14;74.94;100305.65;1814076;79;21071;-37
2021/01/03 02:50:35;;;;;;;24.55;17.32;;;;;;;3.17;74.90;100315.78;1812974;79;21897;-38
2021/01/03 02:53:04;;;;;;;24.07;17.48;;;;;;;3.21;74.90;100302.06;1793421;79;21313;-38
2021/01/03 02:55:33;;;;;;;30.12;17.95;;;;;;;3.18;74.92;100310.14;1798775;79;21189;-37
2021/01/03 02:58:01;;;;;;;47.15;19.55;;;;;;;3.04;75.16;100308.70;1784575;80;21165;-39
2021/01/03 03:00:36;;;;;;;41.10;19.23;;;;;;;2.96;75.58;100312.00;1788751;79;21133;-37
2021/01/03 03:03:08;;;;;;;29.02;18.80;;;;;;;2.90;75.71;100310.48;1794923;79;22170;-38
2021/01/03 03:05:37;;;;;;;27.85;18.27;;;;;;;2.87;75.97;100305.67;1788230;79;21189;-39
2021/01/03 03:08:06;;;;;;;33.38;18.12;;;;;;;2.90;75.88;100309.14;1793540;78;21145;-39
2021/01/03 03:10:34;;;;;;;31.40;18.57;;;;;;;2.90;75.95;100310.48;1793316;78;21003;-38
2021/01/03 03:13:02;;;;;;;50.55;18.87;;;;;;;2.85;75.99;100306.52;1798266;78;21409;-38
2021/01/03 03:15:32;;;;;;;30.90;18.25;;;;;;;2.79;76.17;100302.30;1792164;78;21219;-39
2021/01/03 03:18:01;;;;;;;23.30;15.40;;;;;;;2.76;76.30;100304.19;1817201;78;21145;-39
2021/01/03 03:20:29;;;;;;;30.23;17.60;;;;;;;2.79;76.28;100302.30;1820451;78;21188;-39
2021/01/03 03:22:57;;;;;;;37.83;16.42;;;;;;;2.85;76.12;100294.47;1814431;78;21165;-38
2021/01/03 03:25:26;;;;;;;35.80;17.07;;;;;;;2.86;76.12;100296.04;1805662;78;21122;-38
2021/01/03 03:27:54;;;;;;;29.75;14.33;;;;;;;2.84;76.09;100297.42;1791571;77;22145;-38
2021/01/03 03:30:24;;;;;;;22.95;14.95;;;;;;;2.81;76.07;100298.77;1811978;78;21560;-38
2021/01/03 03:32:53;;;;;;;22.17;14.35;;;;;;;2.79;76.04;100294.27;1814811;78;21134;-38
2021/01/03 03:35:24;;;;;;;27.10;14.93;;;;;;;2.83;75.98;100295.28;1773884;80;21603;-38
2021/01/03 03:37:53;;;;;;;22.60;15.95;;;;;;;2.83;75.96;100301.17;1786532;78;21149;-38
2021/01/03 03:40:22;;;;;;;22.85;15.08;;;;;;;2.78;76.06;100302.03;1799086;78;22103;-38
2021/01/03 03:42:51;;;;;;;30.68;16.35;;;;;;;2.78;76.18;100300.70;1803108;78;25440;-38
2021/01/03 03:45:20;;;;;;;24.82;15.50;;;;;;;2.80;76.13;100295.87;1802869;78;21592;-38
2021/01/03 03:47:48;;;;;;;21.00;14.68;;;;;;;2.84;76.05;100304.12;1817535;78;21550;-38
2021/01/03 03:50:20;;;;;;;25.48;15.10;;;;;;;2.89;75.79;100306.20;1800177;78;21134;-38
2021/01/03 03:52:48;;;;;;;29.77;13.98;;;;;;;2.89;75.72;100299.51;1790982;78;21343;-38
2021/01/03 03:55:17;;;;;;;32.53;15.18;;;;;;;2.84;75.80;100303.58;1794069;78;21436;-37
2021/01/03 03:57:46;;;;;;;25.68;12.55;;;;;;;2.80;75.80;100305.78;1811792;78;21082;-38
2021/01/03 04:00:21;;;;;;;24.65;13.18;;;;;;;2.74;75.90;100299.67;1795747;78;21157;-38
2021/01/03 04:02:51;;;;;;;20.10;13.38;;;;;;;2.68;76.09;100312.84;1791646;78;21149;-38
2021/01/03 04:05:24;;;;;;;17.50;13.53;;;;;;;2.70;76.07;100313.38;1793767;78;21330;-38
2021/01/03 04:07:52;;;;;;;18.92;12.23;;;;;;;2.68;76.15;100304.81;1785264;79;21212;-38
2021/01/03 04:10:21;;;;;;;25.80;11.55;;;;;;;2.61;76.38;100307.05;1795139;79;21043;-37
2021/01/03 04:12:51;;;;;;;19.87;12.47;;;;;;;2.55;76.51;100305.50;1801980;79;28367;-37
2021/01/03 04:15:19;;;;;;;17.23;12.85;;;;;;;2.54;76.65;100305.23;1808139;79;21201;-37
2021/01/03 04:17:48;;;;;;;15.60;12.20;;;;;;;2.57;76.56;100297.96;1790111;79;21315;-37
2021/01/03 04:20:18;;;;;;;15.15;9.53;;;;;;;2.60;76.41;100301.43;1747333;80;21146;-37
2021/01/03 04:22:46;;;;;;;19.20;12.28;;;;;;;2.60;76.47;100302.23;1785377;79;21129;-38
2021/01/03 04:25:16;;;;;;;23.02;13.00;;;;;;;2.56;76.49;100305.22;1792213;79;21154;-37
2021/01/03 04:27:44;;;;;;;18.40;12.65;;;;;;;2.52;76.62;100307.38;1785761;79;21090;-38
2021/01/03 04:30:14;;;;;;;19.98;13.28;;;;;;;2.49;76.66;100312.77;1800417;79;21448;-38
2021/01/03 04:32:42;;;;;;;16.60;12.45;;;;;;;2.49;76.65;100307.95;1784924;79;21062;-37
2021/01/03 04:35:12;;;;;;;20.95;12.03;;;;;;;2.53;76.66;100311.66;1790240;79;21180;-37
2021/01/03 04:37:40;;;;;;;11.97;8.90;;;;;;;2.48;76.76;100310.38;1785570;79;21043;-37
2021/01/03 04:40:17;;;;;;;22.82;11.70;;;;;;;2.49;76.79;100313.31;1784672;79;21143;-38
2021/01/03 04:42:45;;;;;;;16.27;12.10;;;;;;;2.42;76.87;100308.28;1796895;79;21573;-38
2021/01/03 04:45:33;;;;;;;18.35;12.58;;;;;;;2.42;77.01;100312.86;1811649;79;21153;-38
2021/01/03 04:48:22;;;;;;;16.80;11.97;;;;;;;2.47;76.89;100309.57;1785420;79;21138;-37
2021/01/03 04:51:01;;;;;;;21.02;12.75;;;;;;;2.52;76.92;100310.86;1784165;79;21031;-38
2021/01/03 04:53:41;;;;;;;22.05;14.87;;;;;;;2.57;76.94;100308.67;1812426;79;21166;-38
2021/01/03 04:56:32;;;;;;;20.02;11.53;;;;;;;2.58;76.87;100308.94;1815318;79;21326;-37
2021/01/03 04:59:24;;;;;;;17.05;12.55;;;;;;;2.65;76.77;100312.09;1796094;79;21067;-38
2021/01/03 05:02:13;;;;;;;16.25;12.03;;;;;;;2.78;76.41;100315.42;1786768;79;21154;-36
2021/01/03 05:05:17;;;;;;;19.62;13.25;;;;;;;2.82;76.25;100323.67;1814711;79;21139;-38
2021/01/03 05:08:11;;;;;;;19.82;12.63;;;;;;;2.78;76.17;100322.66;1806926;79;21142;-41
2021/01/03 05:10:39;;;;;;;18.98;14.00;;;;;;;2.77;76.23;100325.06;1740775;80;21181;-38
2021/01/03 05:13:42;;;;;;;18.67;12.98;;;;;;;2.86;76.08;100324.70;1747992;82;21215;-37
2021/01/03 05:16:12;;;;;;;17.82;12.85;;;;;;;2.95;75.86;100333.73;1762543;79;22394;-38
2021/01/03 05:19:00;;;;;;;17.95;12.82;;;;;;;2.94;75.71;100332.93;1782933;79;22243;-38
2021/01/03 05:21:49;;;;;;;26.57;13.88;;;;;;;2.93;75.64;100339.90;1785847;79;22477;-37
2021/01/03 05:24:18;;;;;;;18.40;12.90;;;;;;;2.93;75.53;100344.72;1785583;79;22210;-37
2021/01/03 05:26:46;;;;;;;15.72;11.45;;;;;;;2.87;75.52;100333.00;1784499;79;21098;-38
2021/01/03 05:29:27;;;;;;;15.93;11.80;;;;;;;2.93;75.44;100343.38;1793511;79;20984;-37
2021/01/03 05:32:01;;;;;;;17.98;10.75;;;;;;;3.04;75.14;100336.84;1781708;79;21632;-37
2021/01/03 05:34:39;;;;;;;16.73;11.48;;;;;;;3.00;75.02;100339.80;1785322;79;21581;-38
2021/01/03 05:37:16;;;;;;;16.60;10.80;;;;;;;2.92;75.23;100345.80;1794288;79;22356;-39
2021/01/03 05:39:44;;;;;;;18.73;10.78;;;;;;;2.84;75.47;100335.72;1812873;78;21114;-37
2021/01/03 05:42:24;;;;;;;12.98;9.65;;;;;;;2.77;75.66;100341.13;1803447;79;21031;-38
2021/01/03 05:45:05;;;;;;;12.95;9.88;;;;;;;2.78;75.67;100338.18;1786624;79;21163;-38
2021/01/03 05:47:43;;;;;;;14.13;9.77;;;;;;;2.81;75.70;100337.60;1790415;79;21186;-38
2021/01/03 05:50:26;;;;;;;23.00;11.43;;;;;;;2.82;75.80;100335.19;1750794;80;21627;-37
2021/01/03 05:53:20;;;;;;;24.92;10.58;;;;;;;2.80;76.05;100330.67;1800116;79;21166;-39
2021/01/03 05:55:58;;;;;;;15.88;10.80;;;;;;;2.80;76.09;100333.35;1800871;78;21097;-38
2021/01/03 05:58:37;;;;;;;17.17;10.50;;;;;;;2.75;76.20;100332.06;1790433;79;21094;-38
2021/01/03 06:01:20;;;;;;;20.05;10.23;;;;;;;2.78;76.28;100332.83;1791085;79;21144;-38
2021/01/03 06:04:06;;;;;;;17.10;10.93;;;;;;;2.78;76.40;100327.47;1784367;79;21183;-38
2021/01/03 06:06:55;;;;;;;19.02;11.40;;;;;;;2.77;76.44;100323.19;1810891;78;21867;-38
2021/01/03 06:09:36;;;;;;;17.95;12.03;;;;;;;2.79;76.62;100323.72;1830018;78;22766;-38
2021/01/03 06:12:18;;;;;;;16.55;11.73;;;;;;;2.74;76.67;100317.61;1788075;78;21134;-37
2021/01/03 06:14:54;;;;;;;15.50;10.23;;;;;;;2.78;76.68;100314.08;1802256;78;21278;-38
2021/01/03 06:17:45;;;;;;;15.78;11.55;;;;;;;2.89;76.58;100318.25;1806078;79;21000;-37
2021/01/03 06:20:20;;;;;;;14.85;10.63;;;;;;;2.93;76.61;100328.65;1720696;82;21019;-37
2021/01/03 06:22:55;;;;;;;18.48;12.07;;;;;;;2.96;76.66;100329.41;1736488;82;21036;-37
2021/01/03 06:25:55;;;;;;;15.90;11.25;;;;;;;3.01;76.57;100321.31;1830294;77;23409;-37
2021/01/03 06:28:28;;;;;;;17.62;12.03;;;;;;;3.00;76.52;100321.63;1806339;78;21055;-37
2021/01/03 06:31:07;;;;;;;15.15;11.20;;;;;;;3.06;76.44;100321.26;1804774;79;21252;-38
2021/01/03 06:34:08;;;;;;;16.57;10.47;;;;;;;3.10;76.35;100319.36;1786877;79;21000;-38
2021/01/03 06:36:57;;;;;;;16.80;11.48;;;;;;;3.07;76.41;100326.08;1762290;79;20988;-38
2021/01/03 06:39:42;;;;;;;17.67;12.18;;;;;;;3.00;76.63;100326.98;1789566;78;21031;-39
2021/01/03 06:42:47;;;;;;;15.63;11.08;;;;;;;2.98;76.84;100321.90;1827512;76;22242;-38
2021/01/03 06:46:00;;;;;;;17.77;11.05;;;;;;;3.01;76.84;100326.67;1793434;79;20953;-37
2021/01/03 06:48:59;;;;;;;15.85;11.15;;;;;;;3.11;76.68;100324.95;1786618;79;21418;-36
2021/01/03 06:52:21;;;;;;;19.40;11.97;;;;;;;3.08;76.79;100324.20;1794656;79;20991;-38
2021/01/03 06:55:27;;;;;;;17.98;11.28;;;;;;;3.07;76.87;100319.38;1789471;79;21051;-39
2021/01/03 06:58:47;;;;;;;15.90;11.15;;;;;;;3.11;76.89;100322.27;1715522;82;21069;-39
2021/01/03 07:01:29;;;;;;;17.92;11.90;;;;;;;3.17;76.68;100327.30;1729850;82;20964;-39
2021/01/03 07:03:59;;;;;;;17.60;12.35;;;;;;;3.15;76.89;100317.97;1737645;81;22218;-39
2021/01/03 07:06:32;;;;;;;19.12;11.83;;;;;;;3.18;77.01;100320.06;1746750;80;21066;-39
2021/01/03 07:09:09;;;;;;;19.67;12.30;;;;;;;3.23;76.98;100322.14;1770505;80;20993;-39
2021/01/03 07:11:58;;;;;;;19.57;12.63;;;;;;;3.34;76.78;100318.22;1764987;80;21104;-38
2021/01/03 07:14:37;;;;;;;18.73;11.53;;;;;;;3.43;76.56;100311.16;1740678;81;21165;-40
2021/01/03 07:17:08;;;;;;;19.75;12.37;;;;;;;3.46;76.60;100309.23;1763568;79;21453;-39
2021/01/03 07:19:56;;;;;;;18.48;11.68;;;;;;;3.51;76.49;100308.36;1825164;78;21551;-40
2021/01/03 07:22:42;;;;;;;18.67;11.78;;;;;;;3.54;76.46;100309.66;1796059;78;21392;-39
2021/01/03 07:25:21;;;;;;;19.40;12.15;;;;;;;3.56;76.37;100311.52;1785042;80;21050;-40
2021/01/03 07:28:09;;;;;;;20.15;13.10;;;;;;;3.63;76.25;100311.39;1765119;79;21171;-40
2021/01/03 07:31:10;;;;;;;22.37;13.55;;;;;;;3.63;76.27;100311.97;1791682;79;21205;-40
2021/01/03 07:33:52;;;;;;;22.10;12.98;;;;;;;3.60;76.50;100311.19;1792049;79;21121;-40
2021/01/03 07:36:55;;;;;;;22.32;13.58;;;;;;;3.60;76.57;100305.28;1792748;79;21134;-40
2021/01/03 07:39:29;;;;;;;20.40;13.15;;;;;;;3.68;76.52;100305.96;1785263;80;21126;-39
2021/01/03 07:42:27;;;;;;;21.55;13.55;;;;;;;3.72;76.54;100304.31;1793122;80;21126;-39
2021/01/03 07:44:58;;;;;;;19.48;12.63;;;;;;;3.73;76.65;100299.18;1786151;79;21365;-39
2021/01/03 07:47:50;;;;;;;19.73;13.20;;;;;;;3.73;76.64;100297.84;1792134;79;21109;-39
2021/01/03 07:50:32;;;;;;;19.95;12.10;;;;;;;3.78;76.57;100300.45;1793261;80;21089;-39
2021/01/03 07:53:26;;;;;;;18.23;12.37;;;;;;;3.86;76.42;100298.47;1791147;79;21138;-39
2021/01/03 07:55:54;;;;;;;19.65;12.18;;;;;;;3.88;76.33;100301.64;1790603;80;22283;-39
2021/01/03 07:58:23;;;;;;;18.32;11.10;;;;;;;3.84;76.48;100301.97;1792389;79;21335;-39
2021/01/03 08:00:56;;;;;;;15.95;10.10;;;;;;;3.84;76.50;100302.52;1790868;80;21178;-39
2021/01/03 08:03:25;;;;;;;16.60;11.53;;;;;;;3.85;76.60;100304.11;1790306;79;21098;-40
2021/01/03 08:06:07;;;;;;;18.15;11.28;;;;;;;3.94;76.49;100303.70;1792588;80;21128;-39
2021/01/03 08:08:36;;;;;;;18.75;11.55;;;;;;;3.99;76.45;100302.28;1792694;80;21157;-40
2021/01/03 08:11:35;;;;;;;17.17;11.10;;;;;;;4.04;76.47;100305.42;1793011;80;21359;-40
2021/01/03 08:14:07;;;;;;;14.23;9.23;;;;;;;4.04;76.28;100301.41;1791618;79;21647;-40
2021/01/03 08:16:35;;;;;;;15.23;10.38;;;;;;;4.07;76.24;100300.27;1789089;80;21149;-40
2021/01/03 08:19:07;;;;;;;17.15;11.20;;;;;;;4.11;76.09;100300.50;1789968;80;21560;-39
2021/01/03 08:21:38;;;;;;;19.65;12.13;;;;;;;4.13;76.16;100302.33;1765270;80;21134;-40
2021/01/03 08:24:12;;;;;;;17.25;11.35;;;;;;;4.14;76.23;100314.12;1790740;80;22129;-39
2021/01/03 08:26:50;;;;;;;16.65;10.38;;;;;;;4.16;76.12;100307.12;1792492;79;21003;-39
2021/01/03 08:29:32;;;;;;;14.38;10.45;;;;;;;4.23;75.97;100319.61;1792616;80;21618;-40
2021/01/03 08:32:07;;;;;;;16.60;10.35;;;;;;;4.29;75.77;100315.75;1792588;80;21059;-39
2021/01/03 08:34:38;;;;;;;15.93;10.32;;;;;;;4.33;75.77;100311.38;1787876;79;21606;-39
2021/01/03 08:37:20;;;;;;;17.15;10.18;;;;;;;4.35;75.51;100307.87;1792598;79;21447;-40
2021/01/03 08:39:50;;;;;;;18.82;10.82;;;;;;;4.36;75.53;100316.16;1792131;80;21416;-40
2021/01/03 08:42:29;;;;;;;15.00;10.37;;;;;;;4.42;75.36;100320.35;1787404;80;21992;-40
2021/01/03 08:44:58;;;;;;;15.68;10.88;;;;;;;4.48;75.16;100312.47;1785139;80;21051;-40
2021/01/03 08:47:41;;;;;;;17.15;11.60;;;;;;;4.48;75.04;100316.50;1784450;80;21154;-40
2021/01/03 08:50:20;;;;;;;15.28;10.98;;;;;;;4.45;75.01;100321.13;1785457;80;22104;-40
2021/01/03 08:53:06;;;;;;;15.93;11.10;;;;;;;4.45;74.94;100327.84;1782338;80;21157;-40
2021/01/03 08:55:39;;;;;;;16.00;10.50;;;;;;;4.41;75.07;100331.38;1727516;82;21039;-39
2021/01/03 08:58:14;;;;;;;14.05;10.18;;;;;;;4.45;75.24;100335.89;1779414;80;21174;-40
2021/01/03 09:00:44;;;;;;;15.43;10.50;;;;;;;4.56;74.93;100333.26;1700569;81;21583;-39
2021/01/03 09:03:18;;;;;;;14.28;10.05;;;;;;;4.63;74.89;100340.40;1748722;82;21371;-39
2021/01/03 09:05:49;;;;;;;15.63;11.03;;;;;;;4.69;74.77;100337.08;1773480;80;21000;-40
2021/01/03 09:08:31;;;;;;;;;;;;;;;4.69;74.31;100344.59;1745680;81;21005;-39
2021/01/03 09:11:13;;;;;;;11.00;8.30;;;;;;;4.66;74.00;100339.80;1727478;81;20203;-39
2021/01/03 09:13:50;;;;;;;16.02;10.23;;;;;;;4.64;73.84;100339.31;1772987;80;21083;-40
2021/01/03 09:16:34;;;;;;;15.63;10.10;;;;;;;4.70;74.11;100333.27;1778977;80;21161;-39
2021/01/03 09:19:14;;;;;;;14.10;9.63;;;;;;;4.75;74.15;100335.87;1778357;80;21181;-39
2021/01/03 09:21:56;;;;;;;13.32;8.43;;;;;;;4.72;73.71;100330.56;1750178;80;21132;-39
2021/01/03 09:24:30;;;;;;;13.15;8.78;;;;;;;4.72;73.89;100335.13;1761004;81;21623;-39
2021/01/03 09:27:02;;;;;;;13.45;9.50;;;;;;;4.78;73.61;100332.06;1760587;81;21183;-40
2021/01/03 09:29:37;;;;;;;13.83;9.08;;;;;;;4.86;73.46;100327.08;1772280;80;21358;-39
2021/01/03 09:32:29;;;;;;;12.90;9.33;;;;;;;4.88;73.27;100326.25;1786068;80;21014;-39
2021/01/03 09:36:36;;;;;;;12.80;9.23;;;;;;;4.95;73.07;100321.27;1823081;77;22875;-38
2021/01/03 09:39:43;;;;;;;13.50;9.43;;;;;;;4.83;72.89;100319.63;1803151;78;20964;-38
2021/01/03 09:42:33;;;;;;;13.00;9.63;;;;;;;4.78;73.02;100318.63;1790450;79;21284;-38
2021/01/03 09:45:21;;;;;;;;;;;;;;;4.83;73.21;100306.99;1794946;78;20995;-39
2021/01/03 09:47:49;;;;;;;13.88;9.68;;;;;;;4.89;72.98;100314.41;1790596;78;20199;-38
2021/01/03 09:50:47;;;;;;;15.25;10.65;;;;;;;4.79;73.47;100309.45;1788252;80;21027;-39
2021/01/03 09:53:29;;;;;;;17.12;11.48;;;;;;;4.85;73.30;100306.13;1784825;80;20996;-38
2021/01/03 09:56:14;;;;;;;16.42;10.85;;;;;;;4.79;73.19;100304.08;1764673;79;21160;-39
2021/01/03 09:58:45;;;;;;;15.60;10.40;;;;;;;4.83;73.10;100308.34;1788573;78;21616;-38
2021/01/03 10:01:30;;;;;;;15.00;10.75;;;;;;;4.86;73.06;100321.16;1790011;79;21027;-39
2021/01/03 10:04:23;;;;;;;16.60;11.03;;;;;;;4.89;72.75;100309.05;1790565;79;21561;-39
2021/01/03 10:07:11;;;;;;;14.83;10.78;;;;;;;4.87;72.91;100307.19;1794602;78;21147;-37
2021/01/03 10:09:39;;;;;;;15.03;10.68;;;;;;;4.84;73.08;100297.84;1807389;79;21354;-37
2021/01/03 10:12:22;;;;;;;15.38;10.43;;;;;;;4.89;72.86;100295.03;1794317;78;21114;-37
2021/01/03 10:15:21;;;;;;;15.55;10.65;;;;;;;4.97;72.73;100288.19;1795786;78;21205;-37
2021/01/03 10:18:05;;;;;;;14.35;9.85;;;;;;;4.96;72.03;100283.35;1784802;79;21039;-37
2021/01/03 10:20:46;;;;;;;14.58;10.03;;;;;;;4.90;71.83;100275.14;1784790;80;21166;-37
2021/01/03 10:23:44;;;;;;;14.38;10.63;;;;;;;4.83;71.94;100276.64;1807747;79;21365;-37
2021/01/03 10:26:23;;;;;;;15.18;10.63;;;;;;;4.78;72.42;100268.94;1799391;79;21581;-38
2021/01/03 10:28:52;;;;;;;14.78;10.78;;;;;;;4.86;72.95;100267.98;1787570;79;21600;-38
2021/01/03 10:31:23;;;;;;;16.23;11.88;;;;;;;5.01;72.61;100256.92;1788987;79;21493;-38
2021/01/03 10:33:53;;;;;;;16.52;12.10;;;;;;;5.00;72.09;100251.30;1784210;79;21110;-37
2021/01/03 10:36:25;;;;;;;17.32;12.33;;;;;;;4.96;72.09;100253.80;1772345;79;21189;-39
2021/01/03 10:38:53;;;;;;;14.85;10.60;;;;;;;4.91;71.85;100247.72;1777018;79;21186;-38
2021/01/03 10:41:30;;;;;;;14.25;10.20;;;;;;;4.88;71.73;100260.42;1777121;79;21170;-38
2021/01/03 10:43:59;;;;;;;12.45;10.08;;;;;;;4.94;71.85;100261.92;1771456;79;21170;-39
2021/01/03 10:46:28;;;;;;;12.50;9.63;;;;;;;4.97;71.54;100269.38;1780927;79;21153;-39
2021/01/03 10:48:56;;;;;;;15.88;10.68;;;;;;;4.95;71.37;100264.83;1776429;79;21368;-38
2021/01/03 10:51:32;;;;;;;13.08;10.10;;;;;;;4.91;71.39;100259.81;1775316;79;21594;-39
2021/01/03 10:54:04;;;;;;;13.85;10.30;;;;;;;4.87;71.43;100261.52;1775215;79;21171;-39
2021/01/03 10:56:32;;;;;;;16.95;9.93;;;;;;;4.79;71.21;100263.79;1779035;79;21119;-38
2021/01/03 10:59:00;;;;;;;13.13;9.13;;;;;;;4.80;71.34;100255.98;1768767;79;21176;-39
2021/01/03 11:01:31;;;;;;;12.43;9.25;;;;;;;4.87;70.92;100262.86;1770207;80;21279;-38
2021/01/03 11:03:59;;;;;;;13.98;9.70;;;;;;;4.86;71.03;100260.72;1773680;79;21167;-38
2021/01/03 11:06:39;;;;;;;14.23;10.90;;;;;;;4.76;71.09;100242.91;1773381;79;21111;-39
2021/01/03 11:09:11;;;;;;;14.70;10.63;;;;;;;4.81;71.16;100264.84;1779525;79;21126;-39
2021/01/03 11:11:39;;;;;;;11.38;8.80;;;;;;;4.82;71.26;100258.38;1802856;79;21143;-39
2021/01/03 11:14:08;;;;;;;13.62;8.70;;;;;;;4.87;70.89;100251.56;1798746;79;21522;-38
2021/01/03 11:16:42;;;;;;;12.45;9.38;;;;;;;4.93;70.53;100257.64;1780792;79;21450;-39
2021/01/03 11:19:14;;;;;;;12.25;9.35;;;;;;;4.91;70.06;100251.75;1768475;80;21115;-39
2021/01/03 11:21:43;;;;;;;13.68;9.33;;;;;;;4.84;70.11;100258.09;1773667;79;21135;-38
2021/01/03 11:24:12;;;;;;;12.88;9.58;;;;;;;4.84;70.52;100260.78;1779333;79;21158;-39
2021/01/03 11:26:42;;;;;;;12.88;9.43;;;;;;;4.89;70.79;100257.99;1785333;78;21363;-38
2021/01/03 11:29:16;;;;;;;10.95;8.55;;;;;;;4.94;70.61;100264.61;1783593;79;21123;-39
2021/01/03 11:31:47;;;;;;;11.63;9.63;;;;;;;5.00;70.82;100260.70;1786746;79;21000;-39
2021/01/03 11:34:18;;;;;;;14.33;9.43;;;;;;;5.09;70.49;100255.66;1786285;79;21024;-39
2021/01/03 11:36:56;;;;;;;11.70;9.55;;;;;;;5.04;70.02;100242.33;1773730;79;21158;-38
2021/01/03 11:39:31;;;;;;;11.48;9.25;;;;;;;5.06;70.00;100248.76;1779901;79;21625;-39
2021/01/03 11:42:02;;;;;;;13.25;9.93;;;;;;;5.00;70.21;100240.55;1779611;79;21194;-38
2021/01/03 11:44:31;;;;;;;15.23;9.98;;;;;;;4.98;70.27;100248.13;1789523;79;21043;-39
2021/01/03 11:47:02;;;;;;;11.78;9.68;;;;;;;5.01;70.29;100249.66;1804996;79;21000;-39
2021/01/03 11:49:33;;;;;;;11.08;8.78;;;;;;;5.01;69.80;100254.23;1797813;79;21106;-39
2021/01/03 11:52:03;;;;;;;11.40;9.10;;;;;;;4.98;70.01;100251.62;1781711;79;21611;-39
2021/01/03 11:54:34;;;;;;;14.50;10.30;;;;;;;4.96;70.17;100255.68;1804040;79;21633;-39
2021/01/03 11:57:04;;;;;;;12.13;9.70;;;;;;;4.94;70.37;100255.20;1794774;79;21151;-38
2021/01/03 11:59:32;;;;;;;10.30;8.73;;;;;;;4.90;70.41;100253.64;1775482;79;21145;-39
2021/01/03 12:02:07;;;;;;;11.03;8.80;;;;;;;4.91;70.31;100256.58;1793346;79;21420;-39